Glendale, Ohio
Current Conditions -  °F | °C
As of 12:53 AM on Tuesday 27 Jan 2015 (Local Time) from KHAO Reporting Station
Overcast Overcast  
Wind Chill: 15°   Ceiling: 2600
Heat Index: 21°   Visibility: 10mi
Dew Point: 13°   Wind: 5mph
Humidity: 71%   Direction: 60°ENE
Pressure: 29.96"   Gusts: NA
Location:  39.286°N, 84.4668°W
Report Text: KHAO 270553Z AUTO 06004KT 10SM OVC026 M06/M11 A2996 RMK AO2 SLP154 T10611106 11061 21083 58005
Loading
Personal Weather Stations






























Interactive Weather Map New forecast layout! Learn more

10-Day Weather Forecast

Advertisements
Track Severe Weather on mobile